createdAt,value
2022-09-28T00:00:21.046Z,88.51
2022-09-28T00:01:21.140Z,88.92
2022-09-28T00:02:21.165Z,88.92
2022-09-28T00:03:20.984Z,88.72
2022-09-28T00:04:20.973Z,88.62
2022-09-28T00:05:20.953Z,88.62
2022-09-28T00:06:20.970Z,88.62
2022-09-28T00:07:20.933Z,88.62
2022-09-28T00:08:20.926Z,88.82
2022-09-28T00:09:20.908Z,89.03
2022-09-28T00:10:20.902Z,89.03
2022-09-28T00:11:20.961Z,88.62
2022-09-28T00:12:20.874Z,88.62
2022-09-28T00:13:20.860Z,88.72
2022-09-28T00:14:20.843Z,88.82
2022-09-28T00:15:20.825Z,89.13
2022-09-28T00:16:20.866Z,89.03
2022-09-28T00:17:20.804Z,88.82
2022-09-28T00:18:20.794Z,89.44
2022-09-28T00:19:20.773Z,89.44
2022-09-28T00:20:20.762Z,89.54
2022-09-28T00:21:20.763Z,89.54
2022-09-28T00:22:20.746Z,89.34
2022-09-28T00:23:20.723Z,89.54
2022-09-28T00:24:25.258Z,89.75
2022-09-28T00:25:21.697Z,90.00
2022-09-28T00:26:20.692Z,90.31
2022-09-28T00:27:20.681Z,90.41
2022-09-28T00:28:20.661Z,90.00
2022-09-28T00:29:20.640Z,90.41
2022-09-28T00:30:20.632Z,90.72
2022-09-28T00:31:20.651Z,90.82
2022-09-28T00:32:20.618Z,90.61
2022-09-28T00:33:20.592Z,90.72
2022-09-28T00:34:20.591Z,90.61
2022-09-28T00:35:20.571Z,90.61
2022-09-28T00:36:20.588Z,90.72
2022-09-28T00:37:20.541Z,90.92
2022-09-28T00:38:20.531Z,90.92
2022-09-28T00:39:20.513Z,91.03
2022-09-28T00:40:20.540Z,90.76
2022-09-28T00:41:20.492Z,90.55
2022-09-28T00:42:20.477Z,90.55
2022-09-28T00:43:20.462Z,90.66
2022-09-28T00:44:20.451Z,90.76
2022-09-28T00:45:20.430Z,90.66
2022-09-28T00:46:20.438Z,90.45
2022-09-28T00:47:20.401Z,90.14
2022-09-28T00:48:20.392Z,90.04
2022-09-28T00:49:20.381Z,89.73
2022-09-28T00:50:20.372Z,89.62
2022-09-28T00:51:20.370Z,89.83
2022-09-28T00:52:20.341Z,90.04
2022-09-28T00:53:20.333Z,90.45
2022-09-28T00:54:20.353Z,90.76
2022-09-28T00:55:20.302Z,90.45
2022-09-28T00:56:20.303Z,90.14
2022-09-28T00:57:20.270Z,90.14
2022-09-28T00:58:20.258Z,90.04
2022-09-28T00:59:20.251Z,89.83
2022-09-28T01:00:20.233Z,90.25
2022-09-28T01:01:20.261Z,90.76
2022-09-28T01:02:20.411Z,91.17
2022-09-28T01:03:20.201Z,91.48
2022-09-28T01:04:20.180Z,91.58
2022-09-28T01:05:20.168Z,91.48
2022-09-28T01:06:20.168Z,91.17
2022-09-28T01:07:20.149Z,90.76
2022-09-28T01:08:20.129Z,90.35
2022-09-28T01:09:20.118Z,90.45
2022-09-28T01:10:20.107Z,90.55
2022-09-28T01:11:20.097Z,90.35
2022-09-28T01:12:20.076Z,90.45
2022-09-28T01:13:20.087Z,90.31
2022-09-28T01:14:20.064Z,90.72
2022-09-28T01:15:20.047Z,91.13
2022-09-28T01:16:20.055Z,91.44
2022-09-28T01:17:20.021Z,91.13
2022-09-28T01:18:19.996Z,90.92
2022-09-28T01:19:19.985Z,91.03
2022-09-28T01:20:19.987Z,91.17
2022-09-28T01:21:19.967Z,91.17
2022-09-28T01:22:19.956Z,91.17
2022-09-28T01:23:19.925Z,90.76
2022-09-28T01:24:19.925Z,90.55
2022-09-28T01:25:19.927Z,90.66
2022-09-28T01:26:19.885Z,90.66
2022-09-28T01:27:19.884Z,90.86
2022-09-28T01:28:19.907Z,90.76
2022-09-28T01:29:19.854Z,90.45
2022-09-28T01:30:19.856Z,91.07
2022-09-28T01:31:19.905Z,91.48
2022-09-28T01:32:19.814Z,91.28
2022-09-28T01:33:19.805Z,90.97
2022-09-28T01:34:19.787Z,90.86
2022-09-28T01:35:19.787Z,90.97
2022-09-28T01:36:19.754Z,90.76
2022-09-28T01:37:19.753Z,90.66
2022-09-28T01:38:19.738Z,90.25
2022-09-28T01:39:19.725Z,90.25
2022-09-28T01:40:19.747Z,90.25
2022-09-28T01:41:19.695Z,90.25
2022-09-28T01:42:19.683Z,90.66
2022-09-28T01:43:19.672Z,90.66
2022-09-28T01:44:19.653Z,90.70
2022-09-28T01:45:19.664Z,90.49
2022-09-28T01:46:19.669Z,90.08
2022-09-28T01:47:19.623Z,89.56
2022-09-28T01:48:19.600Z,89.46
2022-09-28T01:49:19.595Z,89.05
2022-09-28T01:50:19.583Z,89.05
2022-09-28T01:51:19.565Z,88.64
2022-09-28T01:52:19.541Z,88.64
2022-09-28T01:53:19.534Z,88.64
2022-09-28T01:54:19.536Z,88.84
2022-09-28T01:55:19.513Z,89.98
2022-09-28T01:56:19.503Z,90.49
2022-09-28T01:57:19.481Z,90.80
2022-09-28T01:58:19.472Z,91.01
2022-09-28T01:59:19.472Z,91.42
2022-09-28T02:00:19.441Z,91.32
2022-09-28T02:01:19.481Z,91.77
2022-09-28T02:02:19.439Z,92.08
2022-09-28T02:03:19.412Z,92.29
2022-09-28T02:04:19.400Z,92.08
2022-09-28T02:05:19.387Z,91.88
2022-09-28T02:06:19.361Z,91.98
2022-09-28T02:07:19.350Z,91.88
2022-09-28T02:08:19.329Z,91.71
2022-09-28T02:09:19.345Z,91.61
2022-09-28T02:10:19.308Z,91.20
2022-09-28T02:11:19.304Z,91.30
2022-09-28T02:12:19.280Z,91.30
2022-09-28T02:13:19.272Z,91.40
2022-09-28T02:14:19.258Z,91.20
2022-09-28T02:15:19.245Z,91.20
2022-09-28T02:16:19.278Z,91.09
2022-09-28T02:17:19.216Z,90.99
2022-09-28T02:18:19.204Z,90.93
2022-09-28T02:19:19.200Z,90.41
2022-09-28T02:20:19.184Z,90.10
2022-09-28T02:21:19.172Z,89.89
2022-09-28T02:22:19.149Z,90.10
2022-09-28T02:23:19.139Z,89.79
2022-09-28T02:24:21.524Z,89.89
2022-09-28T02:25:19.106Z,90.83
2022-09-28T02:26:19.092Z,91.34
2022-09-28T02:27:19.090Z,90.93
2022-09-28T02:28:19.066Z,91.03
2022-09-28T02:29:19.150Z,90.72
2022-09-28T02:30:19.036Z,90.83
2022-09-28T02:31:19.082Z,90.77
2022-09-28T02:32:19.023Z,90.25
2022-09-28T02:33:19.006Z,90.45
2022-09-28T02:34:18.997Z,90.56
2022-09-28T02:35:18.986Z,90.25
2022-09-28T02:36:18.965Z,90.25
2022-09-28T02:37:18.947Z,90.25
2022-09-28T02:38:18.941Z,89.83
2022-09-28T02:39:19.021Z,89.62
2022-09-28T02:40:18.966Z,89.42
2022-09-28T02:41:18.930Z,89.36
2022-09-28T02:42:18.888Z,89.36
2022-09-28T02:43:18.875Z,89.67
2022-09-28T02:44:18.865Z,89.67
2022-09-28T02:45:18.847Z,89.36
2022-09-28T02:46:18.932Z,88.84
2022-09-28T02:47:18.813Z,88.32
2022-09-28T02:48:27.187Z,88.16
2022-09-28T02:49:22.022Z,87.85
2022-09-28T02:50:18.774Z,87.64
2022-09-28T02:51:18.786Z,87.54
2022-09-28T02:52:18.753Z,87.33
2022-09-28T02:53:18.744Z,87.33
2022-09-28T02:54:19.064Z,87.12
2022-09-28T02:55:18.718Z,87.64
2022-09-28T02:56:18.693Z,87.95
2022-09-28T02:57:18.692Z,87.85
2022-09-28T02:58:18.674Z,87.85
2022-09-28T02:59:18.678Z,87.85
2022-09-28T03:00:18.643Z,87.74
2022-09-28T03:01:18.691Z,87.47
2022-09-28T03:02:18.659Z,87.27
2022-09-28T03:03:18.611Z,86.75
2022-09-28T03:04:18.597Z,86.96
2022-09-28T03:05:18.572Z,87.06
2022-09-28T03:06:18.555Z,86.96
2022-09-28T03:07:18.550Z,87.06
2022-09-28T03:08:18.553Z,86.96
2022-09-28T03:09:18.648Z,86.96
2022-09-28T03:10:18.512Z,86.85
2022-09-28T03:11:18.499Z,87.16
2022-09-28T03:12:18.482Z,87.57
2022-09-28T03:13:18.471Z,87.47
2022-09-28T03:14:18.470Z,87.68
2022-09-28T03:15:18.442Z,88.20
2022-09-28T03:16:18.457Z,88.20
2022-09-28T03:17:18.410Z,89.65
2022-09-28T03:18:18.402Z,90.33
2022-09-28T03:19:18.500Z,90.64
2022-09-28T03:20:18.370Z,91.47
2022-09-28T03:21:18.360Z,91.99
2022-09-28T03:22:18.339Z,92.19
2022-09-28T03:23:25.669Z,92.09
2022-09-28T03:24:19.326Z,92.30
2022-09-28T03:25:18.298Z,92.50
2022-09-28T03:26:18.289Z,92.61
2022-09-28T03:27:18.287Z,92.67
2022-09-28T03:28:18.259Z,92.97
2022-09-28T03:29:18.403Z,93.08
2022-09-28T03:30:18.239Z,93.08
2022-09-28T03:31:18.236Z,92.97
2022-09-28T03:32:18.213Z,92.97
2022-09-28T03:33:18.199Z,93.08
2022-09-28T03:34:18.196Z,93.29
2022-09-28T03:35:18.167Z,93.70
2022-09-28T03:36:18.160Z,94.01
2022-09-28T03:37:18.158Z,94.43
2022-09-28T03:38:18.152Z,95.00
2022-09-28T03:39:18.277Z,95.31
2022-09-28T03:40:18.154Z,95.31
2022-09-28T03:41:18.093Z,95.31
2022-09-28T03:42:18.076Z,95.42
2022-09-28T03:43:18.079Z,95.31
2022-09-28T03:44:18.055Z,95.52
2022-09-28T03:45:18.039Z,95.57
2022-09-28T03:46:18.059Z,95.89
2022-09-28T03:47:18.015Z,96.09
2022-09-28T03:48:23.155Z,96.20
2022-09-28T03:49:18.983Z,96.20
2022-09-28T03:50:17.981Z,96.30
2022-09-28T03:51:17.955Z,96.30
2022-09-28T03:52:17.939Z,96.26
2022-09-28T03:53:17.944Z,96.05
2022-09-28T03:54:17.916Z,96.05
2022-09-28T03:55:17.902Z,96.26
2022-09-28T03:56:17.885Z,96.47
2022-09-28T03:57:17.875Z,96.88
2022-09-28T03:58:17.862Z,96.98
2022-09-28T03:59:17.948Z,96.88
2022-09-28T04:00:17.833Z,96.77
2022-09-28T04:01:18.275Z,96.67
2022-09-28T04:02:17.846Z,96.56
2022-09-28T04:03:17.803Z,96.47
2022-09-28T04:04:17.771Z,96.56
2022-09-28T04:05:17.765Z,96.88
2022-09-28T04:06:17.752Z,97.04
2022-09-28T04:07:17.738Z,97.14
2022-09-28T04:08:17.731Z,97.14
2022-09-28T04:09:17.812Z,96.94
2022-09-28T04:10:17.700Z,96.83
2022-09-28T04:11:17.683Z,96.73
2022-09-28T04:12:17.669Z,96.73
2022-09-28T04:13:17.664Z,96.73
2022-09-28T04:14:17.641Z,96.73
2022-09-28T04:15:17.632Z,96.62
2022-09-28T04:16:17.665Z,96.31
2022-09-28T04:17:17.600Z,96.21
2022-09-28T04:18:17.601Z,96.11
2022-09-28T04:19:17.692Z,96.01
2022-09-28T04:20:17.558Z,96.01
2022-09-28T04:21:17.553Z,95.70
2022-09-28T04:22:17.530Z,95.59
2022-09-28T04:23:17.537Z,95.55
2022-09-28T04:24:17.518Z,95.65
2022-09-28T04:25:17.502Z,95.86
2022-09-28T04:26:17.477Z,95.86
2022-09-28T04:27:17.479Z,95.86
2022-09-28T04:28:17.469Z,95.76
2022-09-28T04:29:17.631Z,95.76
2022-09-28T04:30:17.431Z,95.55
2022-09-28T04:31:17.440Z,95.45
2022-09-28T04:32:17.398Z,95.34
2022-09-28T04:33:17.400Z,95.24
2022-09-28T04:34:17.370Z,95.24
2022-09-28T04:35:17.375Z,95.34
2022-09-28T04:36:17.341Z,95.55
2022-09-28T04:37:17.339Z,95.65
2022-09-28T04:38:30.683Z,95.65
2022-09-28T04:39:18.453Z,95.65
2022-09-28T04:40:17.331Z,95.61
2022-09-28T04:41:17.288Z,95.40
2022-09-28T04:42:17.265Z,95.30
2022-09-28T04:43:17.307Z,95.30
2022-09-28T04:44:17.247Z,95.61
2022-09-28T04:45:17.229Z,95.81
2022-09-28T04:46:17.292Z,95.81
2022-09-28T04:47:17.219Z,95.61
2022-09-28T04:48:17.223Z,95.50
2022-09-28T04:49:17.320Z,95.50
2022-09-28T04:50:17.161Z,95.50
2022-09-28T04:51:17.146Z,95.30
2022-09-28T04:52:18.497Z,95.30
2022-09-28T04:53:17.446Z,95.20
2022-09-28T04:54:17.574Z,94.99
2022-09-28T04:55:17.097Z,94.78
2022-09-28T04:56:17.113Z,94.37
2022-09-28T04:57:17.064Z,94.17
2022-09-28T04:58:17.124Z,94.17
2022-09-28T04:59:17.195Z,94.43
2022-09-28T05:00:17.026Z,94.64
2022-09-28T05:01:17.119Z,94.64
2022-09-28T05:02:17.030Z,94.43
2022-09-28T05:03:17.014Z,94.43
2022-09-28T05:04:16.970Z,94.32
2022-09-28T05:05:17.173Z,94.12
2022-09-28T05:06:16.953Z,94.02
2022-09-28T05:07:16.936Z,94.23
2022-09-28T05:08:16.937Z,94.64
2022-09-28T05:09:16.967Z,94.90
2022-09-28T05:10:16.900Z,95.10
2022-09-28T05:11:16.883Z,95.21
2022-09-28T05:12:16.874Z,95.00
2022-09-28T05:13:16.862Z,95.00
2022-09-28T05:14:16.852Z,94.90
2022-09-28T05:15:16.822Z,94.90
2022-09-28T05:16:16.858Z,94.80
2022-09-28T05:17:16.802Z,94.70
2022-09-28T05:18:16.804Z,94.59
2022-09-28T05:19:16.877Z,94.49
2022-09-28T05:20:16.769Z,94.38
2022-09-28T05:21:16.749Z,94.38
2022-09-28T05:22:16.744Z,94.38
2022-09-28T05:23:16.740Z,94.34
2022-09-28T05:24:16.712Z,94.45
2022-09-28T05:25:16.700Z,94.45
2022-09-28T05:26:16.698Z,94.45
2022-09-28T05:27:16.669Z,94.45
2022-09-28T05:28:16.671Z,94.34
2022-09-28T05:29:16.775Z,94.34
2022-09-28T05:30:16.629Z,94.34
2022-09-28T05:31:16.691Z,94.13
2022-09-28T05:32:16.610Z,93.93
2022-09-28T05:33:16.603Z,94.03
2022-09-28T05:34:16.591Z,94.13
2022-09-28T05:35:16.559Z,94.24
2022-09-28T05:36:16.553Z,94.24
2022-09-28T05:37:16.532Z,94.34
2022-09-28T05:38:16.539Z,94.34
2022-09-28T05:39:16.598Z,94.45
2022-09-28T05:40:16.584Z,94.45
2022-09-28T05:41:16.491Z,94.45
2022-09-28T05:42:16.549Z,94.45
2022-09-28T05:43:16.470Z,94.40
2022-09-28T05:44:16.592Z,94.40
2022-09-28T05:45:16.436Z,94.20
2022-09-28T05:46:16.458Z,93.99
2022-09-28T05:47:16.408Z,93.48
2022-09-28T05:48:16.412Z,93.27
2022-09-28T05:49:16.377Z,93.06
2022-09-28T05:50:16.368Z,92.96
2022-09-28T05:51:16.356Z,93.16
2022-09-28T05:52:16.349Z,93.48
2022-09-28T05:53:16.336Z,93.37
2022-09-28T05:54:16.507Z,93.48
2022-09-28T05:55:16.308Z,93.68
2022-09-28T05:56:16.296Z,93.58
2022-09-28T05:57:16.280Z,93.68
2022-09-28T05:58:16.280Z,93.79
2022-09-28T05:59:16.246Z,93.84
2022-09-28T06:00:16.246Z,94.05
2022-09-28T06:01:16.276Z,94.26
2022-09-28T06:02:16.231Z,94.36
2022-09-28T06:03:16.208Z,94.36
2022-09-28T06:04:16.259Z,94.36
2022-09-28T06:05:16.174Z,94.56
2022-09-28T06:06:16.155Z,94.67
2022-09-28T06:07:16.149Z,94.67
2022-09-28T06:08:16.153Z,94.67
2022-09-28T06:09:16.115Z,94.52
2022-09-28T06:10:16.104Z,94.52
2022-09-28T06:11:16.095Z,94.42
2022-09-28T06:12:16.087Z,94.01
2022-09-28T06:13:16.092Z,93.90
2022-09-28T06:14:16.698Z,93.59
2022-09-28T06:15:16.038Z,93.59
2022-09-28T06:16:16.062Z,93.80
2022-09-28T06:17:16.026Z,93.90
2022-09-28T06:18:16.026Z,93.90
2022-09-28T06:19:16.021Z,94.01
2022-09-28T06:20:15.973Z,93.96
2022-09-28T06:21:15.956Z,93.96
2022-09-28T06:22:15.958Z,93.96
2022-09-28T06:23:15.945Z,93.86
2022-09-28T06:24:15.975Z,93.86
2022-09-28T06:25:15.906Z,93.55
2022-09-28T06:26:15.893Z,93.24
2022-09-28T06:27:15.882Z,92.93
2022-09-28T06:28:15.891Z,93.14
2022-09-28T06:29:19.310Z,93.44
2022-09-28T06:30:15.842Z,93.51
2022-09-28T06:31:15.948Z,93.20
2022-09-28T06:32:15.818Z,92.99
2022-09-28T06:33:15.823Z,92.69
2022-09-28T06:34:15.862Z,92.58
2022-09-28T06:35:15.789Z,92.48
2022-09-28T06:36:15.763Z,92.27
2022-09-28T06:37:15.753Z,92.27
2022-09-28T06:38:15.754Z,92.17
2022-09-28T06:39:15.720Z,91.76
2022-09-28T06:40:15.747Z,91.31
2022-09-28T06:41:15.694Z,91.72
2022-09-28T06:42:15.683Z,92.03
2022-09-28T06:43:15.675Z,91.61
2022-09-28T06:44:22.652Z,91.31
2022-09-28T06:45:15.639Z,91.20
2022-09-28T06:46:15.742Z,91.20
2022-09-28T06:47:15.849Z,91.00
2022-09-28T06:48:15.613Z,90.85
2022-09-28T06:49:19.290Z,90.75
2022-09-28T06:50:15.571Z,90.85
2022-09-28T06:51:15.561Z,90.85
2022-09-28T06:52:15.569Z,90.65
2022-09-28T06:53:15.540Z,90.75
2022-09-28T06:54:15.558Z,91.16
2022-09-28T06:55:15.502Z,91.37
2022-09-28T06:56:15.491Z,91.37
2022-09-28T06:57:15.478Z,91.16
2022-09-28T06:58:15.478Z,91.02
2022-09-28T06:59:15.455Z,91.02
2022-09-28T07:00:15.443Z,91.12
2022-09-28T07:01:15.517Z,90.40
2022-09-28T07:02:15.457Z,89.48
2022-09-28T07:03:15.414Z,89.58
2022-09-28T07:04:15.423Z,89.89
2022-09-28T07:05:15.369Z,90.09
2022-09-28T07:06:15.358Z,90.20
2022-09-28T07:07:15.371Z,90.20
2022-09-28T07:08:15.335Z,90.09
2022-09-28T07:09:30.800Z,89.78
2022-09-28T07:10:16.313Z,89.58
2022-09-28T07:11:15.285Z,89.48
2022-09-28T07:12:15.329Z,89.37
2022-09-28T07:13:40.790Z,89.17
2022-09-28T07:14:32.076Z,89.58
2022-09-28T07:15:16.235Z,89.84
2022-09-28T07:16:15.247Z,89.75
2022-09-28T07:17:15.479Z,89.64
2022-09-28T07:18:15.287Z,89.84
2022-09-28T07:19:15.184Z,90.16
2022-09-28T07:20:19.190Z,90.36
2022-09-28T07:21:26.136Z,90.46
2022-09-28T07:22:18.910Z,90.52
2022-09-28T07:23:19.334Z,90.52
2022-09-28T07:24:15.145Z,90.11
2022-09-28T07:25:15.105Z,90.42
2022-09-28T07:26:15.438Z,90.52
2022-09-28T07:27:15.089Z,90.42
2022-09-28T07:28:15.077Z,90.32
2022-09-28T07:29:15.059Z,90.42
2022-09-28T07:30:15.049Z,90.58
2022-09-28T07:31:15.075Z,90.58
2022-09-28T07:32:15.042Z,90.58
2022-09-28T07:33:14.996Z,89.97
2022-09-28T07:34:15.053Z,88.27
2022-09-28T07:35:14.976Z,88.84
2022-09-28T07:36:14.956Z,89.04
2022-09-28T07:37:14.955Z,89.25
2022-09-28T07:38:14.933Z,89.39
2022-09-28T07:39:14.925Z,89.19
2022-09-28T07:40:14.932Z,88.68
2022-09-28T07:41:14.893Z,88.57
2022-09-28T07:42:14.896Z,87.96
2022-09-28T07:43:14.856Z,88.47
2022-09-28T07:44:14.917Z,88.68
2022-09-28T07:45:14.842Z,88.78
2022-09-28T07:46:24.856Z,88.68
2022-09-28T07:47:14.811Z,87.76
2022-09-28T07:48:14.795Z,87.04
2022-09-28T07:49:14.821Z,87.76
2022-09-28T07:50:14.770Z,88.17
2022-09-28T07:51:14.769Z,88.31
2022-09-28T07:52:14.760Z,86.77
2022-09-28T07:53:14.720Z,87.90
2022-09-28T07:54:14.711Z,88.00
2022-09-28T07:55:14.699Z,88.72
2022-09-28T07:56:14.692Z,88.92
2022-09-28T07:57:14.741Z,88.82
2022-09-28T07:58:14.658Z,88.82
2022-09-28T07:59:14.729Z,88.31
2022-09-28T08:00:14.645Z,86.98
2022-09-28T08:01:14.742Z,87.28
2022-09-28T08:02:14.749Z,88.31
2022-09-28T08:03:14.590Z,88.92
2022-09-28T08:04:14.588Z,89.13
2022-09-28T08:05:14.574Z,89.23
2022-09-28T08:06:14.557Z,89.23
2022-09-28T08:07:14.557Z,89.13
2022-09-28T08:08:14.527Z,89.33
2022-09-28T08:09:14.592Z,89.54
2022-09-28T08:10:14.515Z,89.70
2022-09-28T08:11:14.506Z,90.11
2022-09-28T08:12:14.497Z,90.42
2022-09-28T08:13:14.460Z,90.42
2022-09-28T08:14:14.514Z,90.01
2022-09-28T08:15:14.476Z,89.50
2022-09-28T08:16:14.574Z,89.29
2022-09-28T08:17:14.407Z,89.09
2022-09-28T08:18:14.402Z,89.19
2022-09-28T08:19:14.388Z,89.39
2022-09-28T08:20:14.369Z,89.19
2022-09-28T08:21:14.376Z,88.68
2022-09-28T08:22:14.346Z,88.37
2022-09-28T08:23:14.327Z,88.57
2022-09-28T08:24:14.375Z,89.19
2022-09-28T08:25:14.318Z,89.81
2022-09-28T08:26:15.687Z,90.11
2022-09-28T08:27:14.298Z,90.11
2022-09-28T08:28:14.265Z,90.22
2022-09-28T08:29:14.246Z,90.62
2022-09-28T08:30:14.247Z,90.11
2022-09-28T08:31:14.308Z,90.22
2022-09-28T08:32:14.218Z,90.17
2022-09-28T08:33:14.196Z,89.97
2022-09-28T08:34:14.230Z,89.87
2022-09-28T08:35:14.182Z,89.45
2022-09-28T08:36:14.164Z,89.66
2022-09-28T08:37:14.144Z,89.66
2022-09-28T08:38:14.126Z,89.25
2022-09-28T08:39:14.106Z,88.84
2022-09-28T08:40:14.099Z,88.43
2022-09-28T08:41:14.095Z,88.23
2022-09-28T08:42:14.083Z,88.12
2022-09-28T08:43:14.055Z,88.02
2022-09-28T08:44:14.149Z,87.20
2022-09-28T08:45:14.042Z,87.51
2022-09-28T08:46:14.090Z,87.82
2022-09-28T08:47:14.003Z,88.02
2022-09-28T08:48:13.991Z,87.92
2022-09-28T08:49:30.807Z,88.02
2022-09-28T08:50:14.968Z,88.23
2022-09-28T08:51:13.964Z,88.23
2022-09-28T08:52:13.947Z,88.33
2022-09-28T08:53:13.921Z,88.43
2022-09-28T08:54:13.945Z,88.53
2022-09-28T08:55:13.921Z,88.84
2022-09-28T08:56:13.905Z,88.94
2022-09-28T08:57:13.874Z,88.94
2022-09-28T08:58:13.861Z,89.25
2022-09-28T08:59:13.862Z,89.25
2022-09-28T09:00:13.839Z,89.15
2022-09-28T09:01:13.873Z,89.15
2022-09-28T09:02:13.847Z,89.25
2022-09-28T09:03:13.790Z,89.36
2022-09-28T09:04:13.829Z,89.66
2022-09-28T09:05:13.773Z,89.36
2022-09-28T09:06:18.178Z,89.36
2022-09-28T09:07:13.730Z,89.45
2022-09-28T09:08:13.731Z,89.36
2022-09-28T09:09:13.701Z,89.36
2022-09-28T09:10:13.709Z,89.04
2022-09-28T09:11:13.680Z,88.64
2022-09-28T09:12:13.681Z,88.43
2022-09-28T09:13:13.657Z,88.53
2022-09-28T09:14:13.694Z,88.53
2022-09-28T09:15:13.640Z,88.43
2022-09-28T09:16:13.647Z,88.74
2022-09-28T09:17:13.612Z,88.84
2022-09-28T09:18:15.558Z,89.36
2022-09-28T09:19:13.580Z,89.87
2022-09-28T09:20:13.579Z,89.97
2022-09-28T09:21:13.554Z,90.37
2022-09-28T09:22:13.540Z,90.89
2022-09-28T09:23:13.530Z,90.69
2022-09-28T09:24:13.562Z,90.17
2022-09-28T09:25:13.510Z,90.17
2022-09-28T09:26:16.041Z,90.07
2022-09-28T09:27:13.470Z,90.17
2022-09-28T09:28:13.451Z,89.56
2022-09-28T09:29:13.438Z,89.45
2022-09-28T09:30:14.734Z,89.56
2022-09-28T09:31:13.472Z,89.76
2022-09-28T09:32:13.400Z,89.87
2022-09-28T09:33:13.396Z,89.36
2022-09-28T09:34:13.369Z,89.56
2022-09-28T09:35:13.373Z,89.76
2022-09-28T09:36:13.345Z,89.25
2022-09-28T09:37:13.341Z,89.04
2022-09-28T09:38:13.317Z,89.25
2022-09-28T09:39:13.314Z,88.94
2022-09-28T09:40:13.304Z,89.25
2022-09-28T09:42:13.265Z,88.84
2022-09-28T09:43:13.267Z,88.33
2022-09-28T09:44:13.276Z,88.33
2022-09-28T09:45:13.244Z,87.71
2022-09-28T09:46:13.272Z,87.71
2022-09-28T09:47:13.205Z,86.48
2022-09-28T09:48:13.185Z,87.20
2022-09-28T09:49:13.179Z,87.51
2022-09-28T09:50:13.166Z,87.82
2022-09-28T09:51:13.145Z,88.12
2022-09-28T09:52:13.167Z,88.33
2022-09-28T09:53:13.126Z,87.92
2022-09-28T09:54:13.107Z,87.82
2022-09-28T09:55:13.104Z,86.48
2022-09-28T09:56:13.076Z,85.87
2022-09-28T09:57:13.079Z,86.24
2022-09-28T09:58:13.053Z,84.80
2022-09-28T09:59:13.055Z,82.55
2022-09-28T10:00:13.025Z,83.06
2022-09-28T10:01:13.138Z,85.31
2022-09-28T10:02:13.050Z,86.34
2022-09-28T10:03:12.983Z,86.40
2022-09-28T10:04:12.985Z,86.71
2022-09-28T10:05:12.962Z,87.18
2022-09-28T10:06:12.942Z,87.29
2022-09-28T10:07:12.934Z,87.90
2022-09-28T10:08:12.922Z,87.24
2022-09-28T10:09:12.928Z,86.53
2022-09-28T10:10:12.894Z,86.08
2022-09-28T10:11:12.900Z,86.49
2022-09-28T10:12:12.866Z,87.16
2022-09-28T10:13:12.852Z,86.65
2022-09-28T10:14:12.855Z,86.04
2022-09-28T10:15:12.833Z,85.42
2022-09-28T10:16:12.845Z,85.12
2022-09-28T10:17:12.791Z,85.22
2022-09-28T10:18:12.782Z,84.71
2022-09-28T10:19:12.784Z,84.09
2022-09-28T10:20:12.751Z,84.20
2022-09-28T10:21:12.757Z,84.30
2022-09-28T10:22:12.736Z,84.09
2022-09-28T10:23:12.755Z,84.50
2022-09-28T10:24:12.702Z,82.77
2022-09-28T10:25:12.693Z,80.83
2022-09-28T10:26:12.682Z,80.21
2022-09-28T10:27:12.669Z,79.70
2022-09-28T10:28:12.670Z,80.73
2022-09-28T10:29:12.643Z,80.73
2022-09-28T10:30:12.633Z,80.28
2022-09-28T10:31:12.640Z,80.48
2022-09-28T10:32:12.591Z,81.10
2022-09-28T10:33:12.600Z,80.28
2022-09-28T10:34:12.570Z,79.57
2022-09-28T10:35:12.561Z,80.18
2022-09-28T10:36:12.541Z,79.63
2022-09-28T10:37:12.531Z,79.22
2022-09-28T10:38:12.529Z,78.71
2022-09-28T10:39:12.510Z,78.30
2022-09-28T10:40:12.493Z,76.97
2022-09-28T10:41:12.506Z,77.08
2022-09-28T10:42:12.469Z,77.48
2022-09-28T10:43:12.474Z,78.00
2022-09-28T10:44:12.451Z,77.38
2022-09-28T10:45:12.438Z,78.16
2022-09-28T10:46:12.472Z,80.00
2022-09-28T10:47:12.414Z,81.12
2022-09-28T10:48:12.405Z,80.20
2022-09-28T10:49:12.384Z,80.78
2022-09-28T10:50:12.349Z,80.98
2022-09-28T10:51:12.356Z,80.64
2022-09-28T10:52:12.328Z,80.84
2022-09-28T10:53:12.339Z,79.27
2022-09-28T10:54:12.301Z,80.19
2022-09-28T10:55:12.297Z,79.14
2022-09-28T10:56:12.279Z,77.51
2022-09-28T10:57:13.543Z,78.22
2022-09-28T10:58:12.263Z,78.83
2022-09-28T10:59:12.242Z,78.28
2022-09-28T11:00:12.228Z,77.87
2022-09-28T11:01:12.280Z,77.74
2022-09-28T11:02:12.259Z,78.15
2022-09-28T11:03:12.198Z,79.13
2022-09-28T11:04:12.167Z,80.04
2022-09-28T11:05:12.158Z,78.28
2022-09-28T11:06:12.147Z,74.82
2022-09-28T11:07:13.323Z,74.62
2022-09-28T11:08:12.129Z,72.78
2022-09-28T11:09:12.112Z,74.41
2022-09-28T11:10:12.092Z,73.80
2022-09-28T11:11:12.077Z,72.38
2022-09-28T11:12:12.068Z,70.89
2022-09-28T11:13:12.060Z,72.31
2022-09-28T11:14:12.041Z,71.19
2022-09-28T11:15:12.037Z,72.62
2022-09-28T11:16:12.089Z,73.23
2022-09-28T11:17:11.997Z,73.30
2022-09-28T11:18:12.007Z,71.87
2022-09-28T11:19:11.981Z,72.48
2022-09-28T11:20:11.957Z,71.36
2022-09-28T11:21:13.202Z,71.16
2022-09-28T11:22:13.895Z,70.65
2022-09-28T11:23:11.935Z,71.47
2022-09-28T11:24:15.500Z,70.55
2022-09-28T11:25:12.999Z,71.64
2022-09-28T11:26:14.851Z,71.16
2022-09-28T11:27:12.868Z,70.75
2022-09-28T11:28:11.855Z,70.86
2022-09-28T11:29:11.895Z,70.96
2022-09-28T11:30:11.819Z,70.55
2022-09-28T11:31:11.893Z,71.67
2022-09-28T11:32:15.723Z,72.11
2022-09-28T11:33:11.794Z,70.79
2022-09-28T11:34:11.764Z,70.79
2022-09-28T11:35:11.760Z,71.30
2022-09-28T11:36:11.746Z,72.45
2022-09-28T11:37:11.744Z,72.04
2022-09-28T11:38:11.719Z,71.84
2022-09-28T11:39:11.707Z,70.31
2022-09-28T11:40:11.688Z,70.99
2022-09-28T11:41:11.677Z,73.02
2022-09-28T11:42:16.095Z,71.06
2022-09-28T11:43:13.353Z,69.84
2022-09-28T11:44:11.688Z,71.16
2022-09-28T11:45:11.634Z,70.82
2022-09-28T11:46:11.721Z,71.43
2022-09-28T11:47:11.616Z,71.84
2022-09-28T11:48:11.575Z,71.43
2022-09-28T11:49:11.569Z,69.50
2022-09-28T11:50:11.557Z,71.36
2022-09-28T11:51:11.544Z,71.57
2022-09-28T11:52:11.536Z,71.47
2022-09-28T11:53:11.525Z,73.30
2022-09-28T11:54:11.564Z,72.82
2022-09-28T11:55:11.495Z,73.94
2022-09-28T11:56:11.472Z,74.55
2022-09-28T11:57:11.473Z,72.52
2022-09-28T11:58:11.446Z,72.62
2022-09-28T11:59:11.434Z,73.13
2022-09-28T12:00:11.425Z,73.47
2022-09-28T12:01:14.296Z,73.87
2022-09-28T12:02:12.550Z,73.47
2022-09-28T12:03:11.460Z,73.67
2022-09-28T12:04:11.432Z,73.71
2022-09-28T12:05:11.371Z,74.11
2022-09-28T12:06:12.083Z,73.80
2022-09-28T12:07:11.335Z,73.71
2022-09-28T12:08:11.317Z,74.41
2022-09-28T12:09:11.348Z,73.60
2022-09-28T12:10:11.286Z,73.94
2022-09-28T12:11:11.278Z,74.15
2022-09-28T12:12:11.263Z,74.45
2022-09-28T12:13:11.254Z,73.74
2022-09-28T12:14:11.234Z,73.74
2022-09-28T12:15:11.226Z,73.23
2022-09-28T12:16:38.763Z,73.84
2022-09-28T12:17:15.371Z,73.33
2022-09-28T12:18:12.231Z,73.06
2022-09-28T12:19:11.198Z,73.16
2022-09-28T12:20:11.153Z,73.16
2022-09-28T12:21:11.146Z,73.67
2022-09-28T12:22:11.137Z,74.90
2022-09-28T12:23:11.117Z,75.71
2022-09-28T12:24:11.118Z,74.83
2022-09-28T12:25:11.092Z,75.44
2022-09-28T12:26:11.062Z,76.05
2022-09-28T12:27:11.092Z,75.68
2022-09-28T12:28:11.042Z,77.51
2022-09-28T12:29:11.071Z,78.23
2022-09-28T12:30:11.024Z,78.12
2022-09-28T12:31:11.069Z,78.94
2022-09-28T12:32:11.012Z,80.20
2022-09-28T12:33:10.983Z,79.90
2022-09-28T12:34:10.964Z,80.00
2022-09-28T12:35:10.962Z,79.49
2022-09-28T12:36:10.943Z,79.90
2022-09-28T12:37:10.941Z,79.69
2022-09-28T12:38:10.910Z,79.90
2022-09-28T12:39:27.131Z,80.00
2022-09-28T12:40:11.891Z,80.65
2022-09-28T12:41:10.882Z,81.57
2022-09-28T12:42:10.857Z,82.18
2022-09-28T12:43:10.859Z,81.46
2022-09-28T12:44:10.824Z,82.59
2022-09-28T12:45:10.819Z,83.34
2022-09-28T12:46:12.327Z,83.44
2022-09-28T12:47:10.879Z,82.32
2022-09-28T12:48:10.772Z,82.83
2022-09-28T12:50:07.263Z,83.75
2022-09-28T12:50:45.564Z,84.06
2022-09-28T12:52:24.865Z,84.47
2022-09-28T12:53:24.824Z,85.18
2022-09-28T12:54:24.823Z,85.49